sensor_id;sensor_type;location;lat;lon;timestamp;pressure;altitude;pressure_sealevel;temperature;humidity
7824;BME280;3957;48.61947800;9.05303100;2023-04-09T00:00:11;96684.03;;;3.78;100.00
7824;BME280;3957;48.61947800;9.05303100;2023-04-09T00:01:14;96682.22;;;3.79;100.00
7824;BME280;3957;48.61947800;9.05303100;2023-04-09T00:02:15;96688.34;;;3.79;100.00
7824;BME280;3957;48.61947800;9.05303100;2023-04-09T00:03:15;96675.09;;;3.79;100.00
7824;BME280;3957;48.61947800;9.05303100;2023-04-09T00:04:16;96681.09;;;3.81;100.00
7824;BME280;3957;48.61947800;9.05303100;2023-04-09T00:05:16;96685.41;;;3.82;100.00
7824;BME280;3957;48.61947800;9.05303100;2023-04-09T00:06:16;96684.56;;;3.82;100.00
7824;BME280;3957;48.61947800;9.05303100;2023-04-09T00:07:17;96684.41;;;3.83;100.00
7824;BME280;3957;48.61947800;9.05303100;2023-04-09T00:08:17;96682.59;;;3.84;100.00
7824;BME280;3957;48.61947800;9.05303100;2023-04-09T00:09:18;96683.44;;;3.84;100.00
7824;BME280;3957;48.61947800;9.05303100;2023-04-09T00:10:19;96672.00;;;3.84;100.00
7824;BME280;3957;48.61947800;9.05303100;2023-04-09T00:11:20;96683.31;;;3.86;100.00
7824;BME280;3957;48.61947800;9.05303100;2023-04-09T00:12:20;96678.81;;;3.86;100.00
7824;BME280;3957;48.61947800;9.05303100;2023-04-09T00:13:21;96685.78;;;3.87;100.00
7824;BME280;3957;48.61947800;9.05303100;2023-04-09T00:14:21;96676.19;;;3.86;100.00
7824;BME280;3957;48.61947800;9.05303100;2023-04-09T00:15:22;96675.22;;;3.87;100.00
7824;BME280;3957;48.61947800;9.05303100;2023-04-09T00:16:22;96679.84;;;3.85;100.00
7824;BME280;3957;48.61947800;9.05303100;2023-04-09T00:17:23;96678.81;;;3.86;100.00
7824;BME280;3957;48.61947800;9.05303100;2023-04-09T00:18:23;96678.69;;;3.88;100.00
7824;BME280;3957;48.61947800;9.05303100;2023-04-09T00:19:24;96683.56;;;3.92;100.00
7824;BME280;3957;48.61947800;9.05303100;2023-04-09T00:20:24;96675.06;;;3.89;100.00
7824;BME280;3957;48.61947800;9.05303100;2023-04-09T00:21:25;96670.69;;;3.98;100.00
7824;BME280;3957;48.61947800;9.05303100;2023-04-09T00:22:26;96681.56;;;3.95;100.00
7824;BME280;3957;48.61947800;9.05303100;2023-04-09T00:23:26;96675.47;;;3.94;100.00
7824;BME280;3957;48.61947800;9.05303100;2023-04-09T00:24:27;96678.94;;;3.95;100.00
7824;BME280;3957;48.61947800;9.05303100;2023-04-09T00:25:27;96679.06;;;3.93;100.00
7824;BME280;3957;48.61947800;9.05303100;2023-04-09T00:26:27;96672.97;;;3.92;100.00
7824;BME280;3957;48.61947800;9.05303100;2023-04-09T00:27:28;96677.41;;;3.92;100.00
7824;BME280;3957;48.61947800;9.05303100;2023-04-09T00:28:28;96673.09;;;3.91;100.00
7824;BME280;3957;48.61947800;9.05303100;2023-04-09T00:29:29;96663.34;;;3.91;100.00
7824;BME280;3957;48.61947800;9.05303100;2023-04-09T00:30:30;96672.09;;;3.92;100.00
7824;BME280;3957;48.61947800;9.05303100;2023-04-09T00:31:30;96678.25;;;3.92;100.00
7824;BME280;3957;48.61947800;9.05303100;2023-04-09T00:32:32;96667.97;;;3.89;100.00
7824;BME280;3957;48.61947800;9.05303100;2023-04-09T00:33:32;96669.59;;;3.90;100.00
7824;BME280;3957;48.61947800;9.05303100;2023-04-09T00:34:32;96671.44;;;3.90;100.00
7824;BME280;3957;48.61947800;9.05303100;2023-04-09T00:35:33;96663.66;;;3.88;100.00
7824;BME280;3957;48.61947800;9.05303100;2023-04-09T00:36:33;96668.09;;;3.88;100.00
7824;BME280;3957;48.61947800;9.05303100;2023-04-09T00:37:34;96667.13;;;3.89;100.00
7824;BME280;3957;48.61947800;9.05303100;2023-04-09T00:38:34;96664.47;;;3.89;100.00
7824;BME280;3957;48.61947800;9.05303100;2023-04-09T00:39:34;96671.34;;;3.82;100.00
7824;BME280;3957;48.61947800;9.05303100;2023-04-09T00:40:35;96659.13;;;3.71;100.00
7824;BME280;3957;48.61947800;9.05303100;2023-04-09T00:41:35;96663.03;;;3.67;100.00
7824;BME280;3957;48.61947800;9.05303100;2023-04-09T00:42:36;96660.41;;;3.67;100.00
7824;BME280;3957;48.61947800;9.05303100;2023-04-09T00:43:37;96665.38;;;3.70;100.00
7824;BME280;3957;48.61947800;9.05303100;2023-04-09T00:44:38;96660.81;;;3.72;100.00
7824;BME280;3957;48.61947800;9.05303100;2023-04-09T00:45:38;96660.41;;;3.67;100.00
7824;BME280;3957;48.61947800;9.05303100;2023-04-09T00:46:39;96669.03;;;3.69;100.00
7824;BME280;3957;48.61947800;9.05303100;2023-04-09T00:47:39;96654.13;;;3.68;100.00
7824;BME280;3957;48.61947800;9.05303100;2023-04-09T00:48:42;96667.06;;;3.71;100.00
7824;BME280;3957;48.61947800;9.05303100;2023-04-09T00:49:43;96665.13;;;3.73;100.00
7824;BME280;3957;48.61947800;9.05303100;2023-04-09T00:50:43;96666.91;;;3.72;100.00
7824;BME280;3957;48.61947800;9.05303100;2023-04-09T00:51:45;96663.28;;;3.73;100.00
7824;BME280;3957;48.61947800;9.05303100;2023-04-09T00:52:46;96665.94;;;3.73;100.00
7824;BME280;3957;48.61947800;9.05303100;2023-04-09T00:53:46;96662.31;;;3.74;100.00
7824;BME280;3957;48.61947800;9.05303100;2023-04-09T00:54:50;96665.78;;;3.75;100.00
7824;BME280;3957;48.61947800;9.05303100;2023-04-09T00:55:52;96661.19;;;3.77;100.00
7824;BME280;3957;48.61947800;9.05303100;2023-04-09T00:56:53;96663.53;;;3.80;100.00
7824;BME280;3957;48.61947800;9.05303100;2023-04-09T00:57:55;96666.19;;;3.80;100.00
7824;BME280;3957;48.61947800;9.05303100;2023-04-09T00:58:55;96664.06;;;3.84;100.00
7824;BME280;3957;48.61947800;9.05303100;2023-04-09T00:59:56;96665.75;;;3.85;100.00
7824;BME280;3957;48.61947800;9.05303100;2023-04-09T01:00:56;96659.63;;;3.84;100.00
7824;BME280;3957;48.61947800;9.05303100;2023-04-09T01:01:57;96662.28;;;3.84;100.00
7824;BME280;3957;48.61947800;9.05303100;2023-04-09T01:02:57;96669.25;;;3.85;100.00
7824;BME280;3957;48.61947800;9.05303100;2023-04-09T01:03:59;96663.09;;;3.85;100.00
7824;BME280;3957;48.61947800;9.05303100;2023-04-09T01:05:00;96670.88;;;3.86;100.00
7824;BME280;3957;48.61947800;9.05303100;2023-04-09T01:10:23;96659.06;;;3.81;100.00
7824;BME280;3957;48.61947800;9.05303100;2023-04-09T01:12:47;96659.22;;;3.79;100.00
7824;BME280;3957;48.61947800;9.05303100;2023-04-09T01:14:50;96664.81;;;3.76;100.00
7824;BME280;3957;48.61947800;9.05303100;2023-04-09T01:15:33;96660.34;;;3.77;100.00
7824;BME280;3957;48.61947800;9.05303100;2023-04-09T01:16:41;96657.78;;;3.85;100.00
7824;BME280;3957;48.61947800;9.05303100;2023-04-09T01:17:53;96661.97;;;3.87;100.00
7824;BME280;3957;48.61947800;9.05303100;2023-04-09T01:19:18;96662.16;;;3.76;100.00
7824;BME280;3957;48.61947800;9.05303100;2023-04-09T01:20:32;96659.16;;;3.61;100.00
7824;BME280;3957;48.61947800;9.05303100;2023-04-09T01:21:34;96653.63;;;3.54;100.00
7824;BME280;3957;48.61947800;9.05303100;2023-04-09T01:23:00;96660.44;;;3.57;100.00
7824;BME280;3957;48.61947800;9.05303100;2023-04-09T01:24:20;96659.84;;;3.63;100.00
7824;BME280;3957;48.61947800;9.05303100;2023-04-09T01:25:40;96658.06;;;3.64;100.00
7824;BME280;3957;48.61947800;9.05303100;2023-04-09T01:27:02;96659.56;;;3.66;100.00
7824;BME280;3957;48.61947800;9.05303100;2023-04-09T01:28:39;96663.03;;;3.67;100.00
7824;BME280;3957;48.61947800;9.05303100;2023-04-09T01:29:46;96658.31;;;3.70;100.00
7824;BME280;3957;48.61947800;9.05303100;2023-04-09T01:30:49;96659.81;;;3.73;100.00
7824;BME280;3957;48.61947800;9.05303100;2023-04-09T01:31:50;96659.69;;;3.74;100.00
7824;BME280;3957;48.61947800;9.05303100;2023-04-09T01:32:52;96664.81;;;3.76;100.00
7824;BME280;3957;48.61947800;9.05303100;2023-04-09T01:33:55;96661.63;;;3.72;100.00
7824;BME280;3957;48.61947800;9.05303100;2023-04-09T01:34:56;96659.13;;;3.71;100.00
7824;BME280;3957;48.61947800;9.05303100;2023-04-09T01:35:57;96656.19;;;3.74;100.00
7824;BME280;3957;48.61947800;9.05303100;2023-04-09T01:37:01;96662.84;;;3.78;100.00
7824;BME280;3957;48.61947800;9.05303100;2023-04-09T01:38:03;96664.53;;;3.79;100.00
7824;BME280;3957;48.61947800;9.05303100;2023-04-09T01:39:05;96669.81;;;3.79;100.00
7824;BME280;3957;48.61947800;9.05303100;2023-04-09T01:40:06;96663.78;;;3.87;100.00
7824;BME280;3957;48.61947800;9.05303100;2023-04-09T01:41:17;96663.66;;;3.88;100.00
7824;BME280;3957;48.61947800;9.05303100;2023-04-09T01:42:18;96670.00;;;3.96;100.00
7824;BME280;3957;48.61947800;9.05303100;2023-04-09T01:43:19;96668.78;;;3.90;100.00
7824;BME280;3957;48.61947800;9.05303100;2023-04-09T01:44:20;96663.34;;;3.91;100.00
7824;BME280;3957;48.61947800;9.05303100;2023-04-09T01:45:23;96662.13;;;3.86;100.00
7824;BME280;3957;48.61947800;9.05303100;2023-04-09T01:46:24;96664.91;;;3.84;100.00
7824;BME280;3957;48.61947800;9.05303100;2023-04-09T01:47:26;96663.25;;;3.83;100.00
7824;BME280;3957;48.61947800;9.05303100;2023-04-09T01:48:28;96675.66;;;3.83;100.00
7824;BME280;3957;48.61947800;9.05303100;2023-04-09T01:49:30;96667.00;;;3.81;100.00
7824;BME280;3957;48.61947800;9.05303100;2023-04-09T01:50:32;96664.53;;;3.79;100.00
7824;BME280;3957;48.61947800;9.05303100;2023-04-09T01:51:32;96663.69;;;3.79;100.00
7824;BME280;3957;48.61947800;9.05303100;2023-04-09T01:52:33;96668.13;;;3.78;100.00
7824;BME280;3957;48.61947800;9.05303100;2023-04-09T01:53:35;96670.94;;;3.77;100.00
7824;BME280;3957;48.61947800;9.05303100;2023-04-09T01:54:35;96666.63;;;3.75;100.00
7824;BME280;3957;48.61947800;9.05303100;2023-04-09T01:55:35;96662.16;;;3.76;100.00
7824;BME280;3957;48.61947800;9.05303100;2023-04-09T01:56:43;96664.81;;;3.76;100.00
7824;BME280;3957;48.61947800;9.05303100;2023-04-09T01:57:44;96656.19;;;3.74;100.00
7824;BME280;3957;48.61947800;9.05303100;2023-04-09T01:58:44;96665.78;;;3.75;100.00
7824;BME280;3957;48.61947800;9.05303100;2023-04-09T01:59:44;96658.00;;;3.73;100.00
7824;BME280;3957;48.61947800;9.05303100;2023-04-09T02:00:47;96661.72;;;3.81;100.00
7824;BME280;3957;48.61947800;9.05303100;2023-04-09T02:02:00;96664.16;;;3.64;100.00
7824;BME280;3957;48.61947800;9.05303100;2023-04-09T02:04:10;96664.09;;;3.46;100.00
7824;BME280;3957;48.61947800;9.05303100;2023-04-09T02:05:16;96658.50;;;3.49;100.00
7824;BME280;3957;48.61947800;9.05303100;2023-04-09T02:06:39;96667.00;;;3.53;100.00
7824;BME280;3957;48.61947800;9.05303100;2023-04-09T02:07:43;96657.25;;;3.53;100.00
7824;BME280;3957;48.61947800;9.05303100;2023-04-09T02:08:46;96664.22;;;3.54;100.00
7824;BME280;3957;48.61947800;9.05303100;2023-04-09T02:09:47;96663.25;;;3.55;100.00
7824;BME280;3957;48.61947800;9.05303100;2023-04-09T02:10:50;96664.22;;;3.54;100.00
7824;BME280;3957;48.61947800;9.05303100;2023-04-09T02:12:00;96658.09;;;3.54;100.00
7824;BME280;3957;48.61947800;9.05303100;2023-04-09T02:13:04;96664.34;;;3.53;100.00
7824;BME280;3957;48.61947800;9.05303100;2023-04-09T02:14:06;96665.19;;;3.53;100.00
7824;BME280;3957;48.61947800;9.05303100;2023-04-09T02:15:08;96663.69;;;3.51;100.00
7824;BME280;3957;48.61947800;9.05303100;2023-04-09T02:16:10;96664.66;;;3.50;100.00
7824;BME280;3957;48.61947800;9.05303100;2023-04-09T02:17:12;96656.00;;;3.48;100.00
7824;BME280;3957;48.61947800;9.05303100;2023-04-09T02:18:21;96655.19;;;3.47;100.00
7824;BME280;3957;48.61947800;9.05303100;2023-04-09T02:19:21;96654.38;;;3.47;100.00
7824;BME280;3957;48.61947800;9.05303100;2023-04-09T02:20:22;96661.75;;;3.43;100.00
7824;BME280;3957;48.61947800;9.05303100;2023-04-09T02:21:22;96651.16;;;3.43;100.00
7824;BME280;3957;48.61947800;9.05303100;2023-04-09T02:22:23;96652.00;;;3.44;100.00
7824;BME280;3957;48.61947800;9.05303100;2023-04-09T02:23:24;96653.66;;;3.45;100.00
7824;BME280;3957;48.61947800;9.05303100;2023-04-09T02:24:24;96656.31;;;3.45;100.00
7824;BME280;3957;48.61947800;9.05303100;2023-04-09T02:25:25;96651.16;;;3.43;100.00
7824;BME280;3957;48.61947800;9.05303100;2023-04-09T02:26:26;96648.38;;;3.45;100.00
7824;BME280;3957;48.61947800;9.05303100;2023-04-09T02:27:26;96648.53;;;3.43;100.00
7824;BME280;3957;48.61947800;9.05303100;2023-04-09T02:28:26;96647.16;;;3.39;100.00
7824;BME280;3957;48.61947800;9.05303100;2023-04-09T02:29:27;96651.06;;;3.35;100.00
7824;BME280;3957;48.61947800;9.05303100;2023-04-09T02:30:28;96649.22;;;3.35;100.00
7824;BME280;3957;48.61947800;9.05303100;2023-04-09T02:31:29;96651.06;;;3.35;100.00
7824;BME280;3957;48.61947800;9.05303100;2023-04-09T02:32:29;96650.25;;;3.34;100.00
7824;BME280;3957;48.61947800;9.05303100;2023-04-09T02:33:30;96649.69;;;3.31;100.00
7824;BME280;3957;48.61947800;9.05303100;2023-04-09T02:34:30;96651.88;;;3.35;100.00
7824;BME280;3957;48.61947800;9.05303100;2023-04-09T02:35:30;96652.44;;;3.39;100.00
7824;BME280;3957;48.61947800;9.05303100;2023-04-09T02:36:31;96646.31;;;3.38;100.00
7824;BME280;3957;48.61947800;9.05303100;2023-04-09T02:37:31;96643.69;;;3.38;100.00
7824;BME280;3957;48.61947800;9.05303100;2023-04-09T02:38:32;96644.34;;;3.40;100.00
7824;BME280;3957;48.61947800;9.05303100;2023-04-09T02:39:32;96652.44;;;3.39;100.00
7824;BME280;3957;48.61947800;9.05303100;2023-04-09T02:40:32;96661.19;;;3.39;100.00
7824;BME280;3957;48.61947800;9.05303100;2023-04-09T02:41:33;96651.63;;;3.38;100.00
7824;BME280;3957;48.61947800;9.05303100;2023-04-09T02:42:33;96658.69;;;3.38;100.00
7824;BME280;3957;48.61947800;9.05303100;2023-04-09T02:43:33;96655.09;;;3.39;100.00
7824;BME280;3957;48.61947800;9.05303100;2023-04-09T02:44:34;96658.56;;;3.39;100.00
7824;BME280;3957;48.61947800;9.05303100;2023-04-09T02:45:35;96658.69;;;3.38;100.00
7824;BME280;3957;48.61947800;9.05303100;2023-04-09T02:46:37;96659.41;;;3.40;100.00
7824;BME280;3957;48.61947800;9.05303100;2023-04-09T02:47:37;96662.19;;;3.38;100.00
7824;BME280;3957;48.61947800;9.05303100;2023-04-09T02:48:38;96655.38;;;3.36;100.00
7824;BME280;3957;48.61947800;9.05303100;2023-04-09T02:49:38;96655.53;;;3.34;100.00
7824;BME280;3957;48.61947800;9.05303100;2023-04-09T02:50:39;96657.16;;;3.35;100.00
7824;BME280;3957;48.61947800;9.05303100;2023-04-09T02:51:39;96658.84;;;3.36;100.00
7824;BME280;3957;48.61947800;9.05303100;2023-04-09T02:52:40;96656.06;;;3.38;100.00
7824;BME280;3957;48.61947800;9.05303100;2023-04-09T02:53:40;96653.25;;;3.39;100.00
7824;BME280;3957;48.61947800;9.05303100;2023-04-09T02:54:41;96653.25;;;3.39;100.00
7824;BME280;3957;48.61947800;9.05303100;2023-04-09T02:55:41;96647.97;;;3.39;100.00
7824;BME280;3957;48.61947800;9.05303100;2023-04-09T02:56:41;96654.13;;;3.40;100.00
7824;BME280;3957;48.61947800;9.05303100;2023-04-09T02:57:42;96654.25;;;3.38;100.00
7824;BME280;3957;48.61947800;9.05303100;2023-04-09T02:58:42;96651.72;;;3.37;100.00
7824;BME280;3957;48.61947800;9.05303100;2023-04-09T02:59:44;96652.88;;;3.34;100.00
7824;BME280;3957;48.61947800;9.05303100;2023-04-09T03:00:45;96653.69;;;3.35;100.00
7824;BME280;3957;48.61947800;9.05303100;2023-04-09T03:01:45;96653.56;;;3.36;100.00
7824;BME280;3957;48.61947800;9.05303100;2023-04-09T03:02:46;96658.84;;;3.36;100.00
7824;BME280;3957;48.61947800;9.05303100;2023-04-09T03:03:46;96652.72;;;3.36;100.00
7824;BME280;3957;48.61947800;9.05303100;2023-04-09T03:04:47;96653.56;;;3.36;100.00
7824;BME280;3957;48.61947800;9.05303100;2023-04-09T03:05:47;96650.09;;;3.36;100.00
7824;BME280;3957;48.61947800;9.05303100;2023-04-09T03:06:47;96652.72;;;3.36;100.00
7824;BME280;3957;48.61947800;9.05303100;2023-04-09T03:07:48;96655.22;;;3.37;100.00
7824;BME280;3957;48.61947800;9.05303100;2023-04-09T03:08:48;96655.91;;;3.39;100.00
7824;BME280;3957;48.61947800;9.05303100;2023-04-09T03:09:49;96648.81;;;3.40;100.00
7824;BME280;3957;48.61947800;9.05303100;2023-04-09T03:10:50;96647.00;;;3.40;100.00
7824;BME280;3957;48.61947800;9.05303100;2023-04-09T03:11:50;96647.00;;;3.40;100.00
7824;BME280;3957;48.61947800;9.05303100;2023-04-09T03:12:51;96651.31;;;3.42;100.00
7824;BME280;3957;48.61947800;9.05303100;2023-04-09T03:13:51;96642.53;;;3.41;100.00
7824;BME280;3957;48.61947800;9.05303100;2023-04-09T03:14:52;96646.84;;;3.42;100.00
7824;BME280;3957;48.61947800;9.05303100;2023-04-09T03:15:52;96641.03;;;3.38;100.00
7824;BME280;3957;48.61947800;9.05303100;2023-04-09T03:16:53;96642.59;;;3.21;100.00
7824;BME280;3957;48.61947800;9.05303100;2023-04-09T03:17:53;96646.91;;;3.22;100.00
7824;BME280;3957;48.61947800;9.05303100;2023-04-09T03:18:54;96648.03;;;3.20;100.00
7824;BME280;3957;48.61947800;9.05303100;2023-04-09T03:19:55;96641.94;;;3.19;100.00
7824;BME280;3957;48.61947800;9.05303100;2023-04-09T03:20:55;96636.63;;;3.19;100.00
7824;BME280;3957;48.61947800;9.05303100;2023-04-09T03:21:56;96641.22;;;3.17;100.00
7824;BME280;3957;48.61947800;9.05303100;2023-04-09T03:22:59;96647.63;;;3.15;100.00
7824;BME280;3957;48.61947800;9.05303100;2023-04-09T03:24:06;96646.94;;;3.13;100.00
7824;BME280;3957;48.61947800;9.05303100;2023-04-09T03:25:07;96640.97;;;3.11;100.00
7824;BME280;3957;48.61947800;9.05303100;2023-04-09T03:26:08;96648.22;;;3.09;100.00
7824;BME280;3957;48.61947800;9.05303100;2023-04-09T03:27:16;96650.16;;;3.06;100.00
7824;BME280;3957;48.61947800;9.05303100;2023-04-09T03:28:17;96638.06;;;3.04;100.00
7824;BME280;3957;48.61947800;9.05303100;2023-04-09T03:29:21;96639.19;;;3.01;100.00
7824;BME280;3957;48.61947800;9.05303100;2023-04-09T03:30:21;96636.69;;;3.00;100.00
7824;BME280;3957;48.61947800;9.05303100;2023-04-09T03:31:22;96642.25;;;2.97;100.00
7824;BME280;3957;48.61947800;9.05303100;2023-04-09T03:32:22;96637.97;;;2.96;100.00
7824;BME280;3957;48.61947800;9.05303100;2023-04-09T03:33:23;96634.47;;;2.95;100.00
7824;BME280;3957;48.61947800;9.05303100;2023-04-09T03:34:29;96638.94;;;2.95;100.00
7824;BME280;3957;48.61947800;9.05303100;2023-04-09T03:35:31;96634.59;;;2.94;100.00
7824;BME280;3957;48.61947800;9.05303100;2023-04-09T03:36:33;96644.34;;;2.93;100.00
7824;BME280;3957;48.61947800;9.05303100;2023-04-09T03:37:42;96639.75;;;2.95;100.00
7824;BME280;3957;48.61947800;9.05303100;2023-04-09T03:38:48;96641.13;;;2.99;100.00
7824;BME280;3957;48.61947800;9.05303100;2023-04-09T03:40:15;96636.69;;;3.00;100.00
7824;BME280;3957;48.61947800;9.05303100;2023-04-09T03:41:15;96641.97;;;3.00;100.00
7824;BME280;3957;48.61947800;9.05303100;2023-04-09T03:42:16;96635.03;;;2.99;100.00
7824;BME280;3957;48.61947800;9.05303100;2023-04-09T03:43:20;96645.31;;;3.02;100.00
7824;BME280;3957;48.61947800;9.05303100;2023-04-09T03:44:25;96638.19;;;3.02;100.00
7824;BME280;3957;48.61947800;9.05303100;2023-04-09T03:45:33;96640.84;;;3.02;100.00
7824;BME280;3957;48.61947800;9.05303100;2023-04-09T03:46:47;96646.28;;;3.01;100.00
7824;BME280;3957;48.61947800;9.05303100;2023-04-09T03:47:50;96643.63;;;3.01;100.00
7824;BME280;3957;48.61947800;9.05303100;2023-04-09T03:48:55;96642.94;;;2.99;100.00
7824;BME280;3957;48.61947800;9.05303100;2023-04-09T03:49:59;96635.69;;;3.01;100.00
7824;BME280;3957;48.61947800;9.05303100;2023-04-09T03:51:01;96643.47;;;3.02;100.00
7824;BME280;3957;48.61947800;9.05303100;2023-04-09T03:52:09;96638.06;;;3.04;100.00
7824;BME280;3957;48.61947800;9.05303100;2023-04-09T03:53:14;96639.72;;;3.05;100.00
7824;BME280;3957;48.61947800;9.05303100;2023-04-09T03:54:16;96639.88;;;3.03;100.00
7824;BME280;3957;48.61947800;9.05303100;2023-04-09T03:55:18;96630.25;;;3.02;100.00
7824;BME280;3957;48.61947800;9.05303100;2023-04-09T03:56:19;96635.56;;;3.02;100.00
7824;BME280;3957;48.61947800;9.05303100;2023-04-09T03:57:19;96641.13;;;2.99;100.00
7824;BME280;3957;48.61947800;9.05303100;2023-04-09T03:58:22;96631.25;;;3.01;100.00
7824;BME280;3957;48.61947800;9.05303100;2023-04-09T03:59:23;96631.41;;;3.00;100.00
7824;BME280;3957;48.61947800;9.05303100;2023-04-09T04:00:24;96637.66;;;2.99;100.00
7824;BME280;3957;48.61947800;9.05303100;2023-04-09T04:01:24;96635.03;;;2.99;100.00
7824;BME280;3957;48.61947800;9.05303100;2023-04-09T04:02:29;96642.09;;;2.98;100.00
7824;BME280;3957;48.61947800;9.05303100;2023-04-09T04:03:37;96635.84;;;2.99;100.00
7824;BME280;3957;48.61947800;9.05303100;2023-04-09T04:04:45;96633.63;;;2.95;100.00
7824;BME280;3957;48.61947800;9.05303100;2023-04-09T04:05:45;96634.31;;;2.97;100.00
7824;BME280;3957;48.61947800;9.05303100;2023-04-09T04:06:48;96633.50;;;2.96;100.00
7824;BME280;3957;48.61947800;9.05303100;2023-04-09T04:07:55;96634.59;;;2.94;100.00
7824;BME280;3957;48.61947800;9.05303100;2023-04-09T04:09:00;96636.28;;;2.95;100.00
7824;BME280;3957;48.61947800;9.05303100;2023-04-09T04:10:10;96637.97;;;2.96;100.00
7824;BME280;3957;48.61947800;9.05303100;2023-04-09T04:11:15;96642.94;;;2.99;100.00
7824;BME280;3957;48.61947800;9.05303100;2023-04-09T04:12:15;96634.72;;;3.02;100.00
7824;BME280;3957;48.61947800;9.05303100;2023-04-09T04:13:37;96643.38;;;3.04;100.00
7824;BME280;3957;48.61947800;9.05303100;2023-04-09T04:14:40;96641.25;;;3.08;100.00
7824;BME280;3957;48.61947800;9.05303100;2023-04-09T04:15:51;96647.66;;;3.05;100.00
7824;BME280;3957;48.61947800;9.05303100;2023-04-09T04:16:55;96645.56;;;3.09;100.00
7824;BME280;3957;48.61947800;9.05303100;2023-04-09T04:18:00;96640.13;;;3.10;100.00
7824;BME280;3957;48.61947800;9.05303100;2023-04-09T04:19:11;96647.25;;;3.10;100.00
7824;BME280;3957;48.61947800;9.05303100;2023-04-09T04:20:18;96635.66;;;3.11;100.00
7824;BME280;3957;48.61947800;9.05303100;2023-04-09T04:21:36;96643.59;;;3.11;100.00
7824;BME280;3957;48.61947800;9.05303100;2023-04-09T04:22:36;96641.09;;;3.09;100.00
7824;BME280;3957;48.61947800;9.05303100;2023-04-09T04:23:38;96644.59;;;3.10;100.00
7824;BME280;3957;48.61947800;9.05303100;2023-04-09T04:24:50;96650.03;;;3.08;100.00
7824;BME280;3957;48.61947800;9.05303100;2023-04-09T04:25:54;96643.59;;;3.11;100.00
7824;BME280;3957;48.61947800;9.05303100;2023-04-09T04:27:02;96645.28;;;3.12;100.00
7824;BME280;3957;48.61947800;9.05303100;2023-04-09T04:28:07;96647.91;;;3.12;100.00
7824;BME280;3957;48.61947800;9.05303100;2023-04-09T04:29:13;96646.94;;;3.13;100.00
7824;BME280;3957;48.61947800;9.05303100;2023-04-09T04:30:40;96647.50;;;3.16;100.00
7824;BME280;3957;48.61947800;9.05303100;2023-04-09T04:31:42;96653.78;;;3.15;100.00
7824;BME280;3957;48.61947800;9.05303100;2023-04-09T04:32:42;96650.28;;;3.15;100.00
7824;BME280;3957;48.61947800;9.05303100;2023-04-09T04:33:44;96654.59;;;3.16;100.00
7824;BME280;3957;48.61947800;9.05303100;2023-04-09T04:34:48;96658.63;;;3.20;100.00
7824;BME280;3957;48.61947800;9.05303100;2023-04-09T04:36:06;96648.03;;;3.20;100.00
7824;BME280;3957;48.61947800;9.05303100;2023-04-09T04:37:14;96646.38;;;3.19;100.00
7824;BME280;3957;48.61947800;9.05303100;2023-04-09T04:38:15;96653.47;;;3.18;100.00
7824;BME280;3957;48.61947800;9.05303100;2023-04-09T04:39:15;96649.00;;;3.19;100.00
7824;BME280;3957;48.61947800;9.05303100;2023-04-09T04:40:32;96646.66;;;3.16;100.00
7824;BME280;3957;48.61947800;9.05303100;2023-04-09T04:41:35;96650.16;;;3.16;100.00
7824;BME280;3957;48.61947800;9.05303100;2023-04-09T04:42:46;96654.59;;;3.16;100.00
7824;BME280;3957;48.61947800;9.05303100;2023-04-09T04:43:49;96654.75;;;3.14;100.00
7824;BME280;3957;48.61947800;9.05303100;2023-04-09T04:44:54;96655.56;;;3.15;100.00
7824;BME280;3957;48.61947800;9.05303100;2023-04-09T04:46:16;96655.56;;;3.15;100.00
7824;BME280;3957;48.61947800;9.05303100;2023-04-09T04:47:16;96654.75;;;3.14;100.00
7824;BME280;3957;48.61947800;9.05303100;2023-04-09T04:48:17;96654.75;;;3.14;100.00
7824;BME280;3957;48.61947800;9.05303100;2023-04-09T04:49:17;96647.50;;;3.16;100.00
7824;BME280;3957;48.61947800;9.05303100;2023-04-09T04:50:20;96657.09;;;3.17;100.00
7824;BME280;3957;48.61947800;9.05303100;2023-04-09T04:51:30;96651.66;;;3.19;100.00
7824;BME280;3957;48.61947800;9.05303100;2023-04-09T04:52:39;96651.66;;;3.19;100.00
7824;BME280;3957;48.61947800;9.05303100;2023-04-09T04:53:40;96655.00;;;3.21;100.00
7824;BME280;3957;48.61947800;9.05303100;2023-04-09T04:54:44;96655.81;;;3.21;100.00
7824;BME280;3957;48.61947800;9.05303100;2023-04-09T04:55:49;96659.19;;;3.23;100.00
7824;BME280;3957;48.61947800;9.05303100;2023-04-09T04:56:56;96653.88;;;3.23;100.00
7824;BME280;3957;48.61947800;9.05303100;2023-04-09T04:58:14;96658.31;;;3.23;100.00
7824;BME280;3957;48.61947800;9.05303100;2023-04-09T04:59:19;96660.00;;;3.24;100.00
7824;BME280;3957;48.61947800;9.05303100;2023-04-09T05:00:39;96653.88;;;3.23;100.00
7824;BME280;3957;48.61947800;9.05303100;2023-04-09T05:01:40;96654.72;;;3.24;100.00
7824;BME280;3957;48.61947800;9.05303100;2023-04-09T05:02:44;96660.56;;;3.28;100.00
7824;BME280;3957;48.61947800;9.05303100;2023-04-09T05:04:07;96658.72;;;3.28;100.00
7824;BME280;3957;48.61947800;9.05303100;2023-04-09T05:05:10;96660.41;;;3.29;100.00
7824;BME280;3957;48.61947800;9.05303100;2023-04-09T05:06:17;96660.41;;;3.29;100.00
7824;BME280;3957;48.61947800;9.05303100;2023-04-09T05:07:19;96658.59;;;3.30;100.00
7824;BME280;3957;48.61947800;9.05303100;2023-04-09T05:08:26;96657.06;;;3.27;100.00
7824;BME280;3957;48.61947800;9.05303100;2023-04-09T05:09:29;96661.66;;;3.25;100.00
7824;BME280;3957;48.61947800;9.05303100;2023-04-09T05:10:34;96659.69;;;3.27;100.00